Hauptseite
METAR-TAF:

METAR-TAF

Flughäfen :

Huambo, Angola

Breite: 12-48-32S, Länge: 015-45-38E, Höhe: 1710 m

Beobachtung

Neuester Wetterbericht von vor 9 Stunden und 6 Minuten, um 21:00 UTC
Wind 6 kt aus Ost/Südost, variierte zwischen Ost und Süd/Südost
Temperatur 15°C
Luftfeuchtigkeit 55%
Luftdruck 1024 hPa

METAR: FNHU 242100Z AUTO 12006KT 090V150 //// // NCD 15/06 Q1024

Zeit: 07:06 (06:06 UTC)

Prognose

Neuester Wetterbericht von vor 7 Stunden und 6 Minuten, um 23:00 UTC
Gültige Prognose vom 25 um 00 UTC bis 25 um 12 UTC
Wind 5 kt aus Ost/Nordost
Sichtweite 10 km oder mehr
keine Wolken unter 1500 m und keine Kumulonimbus oder Gewitterwolken

TAF: FNHU 242300Z 2500/2512 07005KT CAVOK

Wetterbeobachtungen und Prognosen von mehr als 4000 Flughäfen (METAR und TAF Bericht).

Die verfügbaren Stationen werden durch gelbe und rote Markierungen auf der Karte dargestellt.

Führen Sie die Maus auf sie, um den Namen der Station zu sehen.

Darauf klicken, um die Beobachtung von Wetterbeobachtungen und Prognosen zu sehen.

Um die Karte zu ändern : klicken Sie auf den grünen Tasten mit einem schwarzen Kreuz Zum Vergrößern, auf den grünen Button mit einem Gedankenstrich zu verkleinern, oder auf die grünen Pfeile für benachbarte Karten.


METAR-TAF: